createdAt,value
2019-03-30T00:01:10.310Z,26.63
2019-03-30T00:03:40.390Z,28.40
2019-03-30T00:06:10.609Z,28.12
2019-03-30T00:08:40.721Z,29.53
2019-03-30T00:11:10.888Z,29.32
2019-03-30T00:13:40.990Z,29.52
2019-03-30T00:16:11.125Z,30.52
2019-03-30T00:18:41.600Z,31.15
2019-03-30T00:21:11.822Z,29.18
2019-03-30T00:23:41.948Z,30.82
2019-03-30T00:26:12.395Z,30.80
2019-03-30T00:28:42.488Z,33.63
2019-03-30T00:31:12.548Z,29.23
2019-03-30T00:33:42.778Z,33.08
2019-03-30T00:36:12.990Z,31.33
2019-03-30T00:38:43.060Z,29.10
2019-03-30T00:41:13.321Z,28.45
2019-03-30T00:43:43.409Z,29.60
2019-03-30T00:46:13.635Z,30.37
2019-03-30T00:48:43.646Z,33.08
2019-03-30T00:51:13.936Z,33.08
2019-03-30T00:53:44.208Z,31.62
2019-03-30T00:56:14.315Z,30.55
2019-03-30T00:58:44.733Z,31.73
2019-03-30T01:01:15.009Z,27.07
2019-03-30T01:03:45.151Z,26.87
2019-03-30T01:06:15.329Z,26.82
2019-03-30T01:08:45.480Z,27.00
2019-03-30T01:11:15.764Z,27.35
2019-03-30T01:13:45.827Z,31.52
2019-03-30T01:16:16.138Z,30.10
2019-03-30T01:18:46.211Z,30.43
2019-03-30T01:21:16.403Z,26.27
2019-03-30T01:23:46.455Z,28.02
2019-03-30T01:26:16.879Z,30.70
2019-03-30T01:28:47.191Z,27.70
2019-03-30T01:31:17.320Z,32.90
2019-03-30T01:33:47.437Z,32.55
2019-03-30T01:36:17.551Z,28.60
2019-03-30T01:38:47.664Z,27.17
2019-03-30T01:41:17.963Z,31.02
2019-03-30T01:43:48.000Z,31.10
2019-03-30T01:46:18.064Z,30.65
2019-03-30T01:48:48.133Z,32.05
2019-03-30T01:51:18.208Z,30.02
2019-03-30T01:53:48.239Z,31.30
2019-03-30T01:56:18.285Z,29.80
2019-03-30T01:58:48.412Z,31.20
2019-03-30T02:01:18.647Z,34.40
2019-03-30T02:03:48.765Z,34.23
2019-03-30T02:06:18.842Z,34.83
2019-03-30T02:08:48.925Z,29.85
2019-03-30T02:11:19.001Z,29.52
2019-03-30T02:13:49.124Z,27.02
2019-03-30T02:16:19.234Z,31.77
2019-03-30T02:18:49.484Z,29.10
2019-03-30T02:21:19.635Z,30.43
2019-03-30T02:23:49.853Z,32.83
2019-03-30T02:26:19.916Z,31.77
2019-03-30T02:28:49.932Z,37.38
2019-03-30T02:31:19.972Z,35.25
2019-03-30T02:33:50.066Z,34.08
2019-03-30T02:36:20.288Z,35.98
2019-03-30T02:38:50.592Z,36.70
2019-03-30T02:41:20.610Z,38.95
2019-03-30T02:43:51.181Z,33.88
2019-03-30T02:46:21.268Z,32.58
2019-03-30T02:48:51.457Z,35.00
2019-03-30T02:51:21.507Z,34.33
2019-03-30T02:53:51.621Z,39.88
2019-03-30T02:56:21.681Z,39.67
2019-03-30T02:58:51.774Z,35.13
2019-03-30T03:01:25.640Z,37.55
2019-03-30T03:03:56.618Z,36.10
2019-03-30T03:06:26.683Z,38.30
2019-03-30T03:08:56.776Z,35.20
2019-03-30T03:11:26.876Z,37.93
2019-03-30T03:13:57.055Z,34.92
2019-03-30T03:16:27.681Z,36.68
2019-03-30T03:18:58.074Z,40.38
2019-03-30T03:21:28.245Z,35.70
2019-03-30T03:23:58.392Z,40.28
2019-03-30T03:26:28.786Z,39.20
2019-03-30T03:28:58.890Z,38.05
2019-03-30T03:31:29.038Z,36.03
2019-03-30T03:33:59.225Z,35.68
2019-03-30T03:36:29.428Z,35.20
2019-03-30T03:38:59.512Z,38.38
2019-03-30T03:41:29.567Z,37.20
2019-03-30T03:43:59.764Z,36.30
2019-03-30T03:46:29.859Z,33.80
2019-03-30T03:48:59.896Z,34.65
2019-03-30T03:51:30.854Z,34.08
2019-03-30T03:54:01.777Z,34.67
2019-03-30T03:56:34.011Z,40.35
2019-03-30T03:59:05.586Z,38.48
2019-03-30T04:01:38.019Z,40.60
2019-03-30T04:04:11.121Z,41.90
2019-03-30T04:06:41.419Z,38.10
2019-03-30T04:09:12.290Z,36.28
2019-03-30T04:11:43.633Z,33.63
2019-03-30T04:14:16.895Z,35.90
2019-03-30T04:16:47.013Z,37.85
2019-03-30T04:19:17.092Z,40.73
2019-03-30T04:21:47.168Z,44.00
2019-03-30T04:24:17.298Z,37.73
2019-03-30T04:26:47.418Z,40.70
2019-03-30T04:29:17.806Z,37.60
2019-03-30T04:31:48.153Z,45.23
2019-03-30T04:34:19.182Z,39.67
2019-03-30T04:36:49.331Z,39.55
2019-03-30T04:39:19.459Z,38.58
2019-03-30T04:41:49.665Z,38.73
2019-03-30T04:44:19.786Z,36.98
2019-03-30T04:46:49.893Z,40.52
2019-03-30T04:49:20.024Z,39.08
2019-03-30T04:51:57.581Z,39.58
2019-03-30T04:54:21.885Z,34.75
2019-03-30T04:56:51.991Z,35.83
2019-03-30T04:59:22.085Z,38.17
2019-03-30T05:01:52.198Z,36.15
2019-03-30T05:04:22.382Z,35.85
2019-03-30T05:06:52.445Z,40.88
2019-03-30T05:09:22.480Z,36.30
2019-03-30T05:11:52.545Z,40.45
2019-03-30T05:14:22.705Z,39.15
2019-03-30T05:16:52.878Z,37.58
2019-03-30T05:19:22.962Z,41.05
2019-03-30T05:21:53.336Z,37.25
2019-03-30T05:24:23.385Z,44.40
2019-03-30T05:26:53.430Z,35.92
2019-03-30T05:29:23.877Z,34.13
2019-03-30T05:31:53.910Z,37.90
2019-03-30T05:34:23.972Z,45.50
2019-03-30T05:37:29.372Z,41.13
2019-03-30T05:39:59.542Z,39.03
2019-03-30T05:42:29.612Z,38.78
2019-03-30T05:45:00.150Z,38.55
2019-03-30T05:47:30.502Z,37.53
2019-03-30T05:50:00.817Z,38.95
2019-03-30T05:52:31.069Z,38.73
2019-03-30T05:55:01.105Z,38.95
2019-03-30T05:57:31.166Z,38.70
2019-03-30T06:00:01.303Z,37.50
2019-03-30T06:02:37.039Z,40.58
2019-03-30T06:05:07.176Z,32.88
2019-03-30T06:07:37.209Z,36.88
2019-03-30T06:10:07.692Z,30.52
2019-03-30T06:12:37.881Z,32.58
2019-03-30T06:15:25.521Z,30.43
2019-03-30T06:17:55.626Z,32.95
2019-03-30T06:20:25.720Z,28.87
2019-03-30T06:22:55.796Z,33.30
2019-03-30T06:25:43.970Z,31.50
2019-03-30T06:28:14.037Z,36.53
2019-03-30T06:30:44.170Z,28.47
2019-03-30T06:33:14.216Z,30.37
2019-03-30T06:35:44.528Z,27.25
2019-03-30T06:38:14.704Z,28.75
2019-03-30T06:40:44.789Z,25.37
2019-03-30T06:43:14.893Z,28.90
2019-03-30T06:45:44.962Z,25.27
2019-03-30T06:48:15.075Z,26.48
2019-03-30T06:50:45.132Z,25.60
2019-03-30T06:53:15.220Z,25.37
2019-03-30T06:55:45.293Z,25.20
2019-03-30T06:58:15.747Z,24.72
2019-03-30T07:00:48.023Z,22.30
2019-03-30T07:03:18.186Z,21.80
2019-03-30T07:05:48.229Z,23.67
2019-03-30T07:08:18.591Z,25.60
2019-03-30T07:10:49.609Z,25.87
2019-03-30T07:13:19.749Z,25.20
2019-03-30T07:15:51.110Z,22.93
2019-03-30T07:18:40.443Z,23.97
2019-03-30T07:21:10.648Z,24.00
2019-03-30T07:23:41.133Z,24.23
2019-03-30T07:26:11.315Z,21.93
2019-03-30T07:28:41.481Z,22.87
2019-03-30T07:31:11.621Z,19.57
2019-03-30T07:33:41.714Z,20.97
2019-03-30T07:36:12.103Z,25.13
2019-03-30T07:38:42.297Z,20.50
2019-03-30T07:41:12.480Z,20.23
2019-03-30T07:43:42.589Z,24.23
2019-03-30T07:46:12.602Z,33.63
2019-03-30T07:48:42.691Z,23.20
2019-03-30T07:51:12.968Z,20.43
2019-03-30T07:53:44.886Z,25.10
2019-03-30T07:56:14.956Z,21.37
2019-03-30T07:58:45.003Z,24.70
2019-03-30T08:01:15.090Z,28.27
2019-03-30T08:03:45.376Z,24.60
2019-03-30T08:06:15.557Z,23.23
2019-03-30T08:08:45.654Z,22.10
2019-03-30T08:11:15.841Z,22.13
2019-03-30T08:13:46.087Z,20.00
2019-03-30T08:16:16.120Z,20.40
2019-03-30T08:18:46.566Z,18.60
2019-03-30T08:21:16.641Z,19.10
2019-03-30T08:23:46.696Z,17.07
2019-03-30T08:26:54.278Z,19.90
2019-03-30T08:29:24.502Z,16.50
2019-03-30T08:31:54.624Z,16.07
2019-03-30T08:34:24.664Z,16.10
2019-03-30T08:36:54.886Z,17.30
2019-03-30T08:39:25.136Z,14.80
2019-03-30T08:41:55.288Z,16.60
2019-03-30T08:44:25.621Z,15.20
2019-03-30T08:46:55.862Z,15.40
2019-03-30T08:49:26.365Z,14.70
2019-03-30T08:51:56.481Z,15.40
2019-03-30T08:54:26.509Z,14.10
2019-03-30T08:56:56.593Z,14.50
2019-03-30T08:59:26.773Z,14.33
2019-03-30T09:01:56.869Z,14.70
2019-03-30T09:04:26.933Z,13.83
2019-03-30T09:06:57.016Z,14.80
2019-03-30T09:09:27.101Z,14.70
2019-03-30T09:11:57.172Z,14.33
2019-03-30T09:14:27.362Z,18.40
2019-03-30T09:16:57.683Z,17.27
2019-03-30T09:19:27.693Z,14.60
2019-03-30T09:21:58.008Z,14.20
2019-03-30T09:24:28.033Z,15.53
2019-03-30T09:26:58.547Z,14.03
2019-03-30T09:29:28.588Z,14.93
2019-03-30T09:32:13.260Z,14.27
2019-03-30T09:34:30.970Z,16.87
2019-03-30T09:37:01.380Z,15.13
2019-03-30T09:39:31.505Z,15.70
2019-03-30T09:42:01.592Z,14.23
2019-03-30T09:44:31.908Z,18.47
2019-03-30T09:47:02.082Z,15.33
2019-03-30T09:49:32.108Z,14.90
2019-03-30T09:52:02.152Z,14.87
2019-03-30T09:54:32.218Z,15.47
2019-03-30T09:57:02.771Z,15.90
2019-03-30T09:59:32.897Z,14.27
2019-03-30T10:02:03.133Z,13.83
2019-03-30T10:04:33.260Z,17.03
2019-03-30T10:07:03.346Z,16.50
2019-03-30T10:09:33.507Z,16.23
2019-03-30T10:12:03.570Z,15.03
2019-03-30T10:14:33.610Z,19.67
2019-03-30T10:17:03.775Z,14.70
2019-03-30T10:19:33.925Z,14.57
2019-03-30T10:22:23.561Z,15.03
2019-03-30T10:24:53.969Z,16.50
2019-03-30T10:27:23.974Z,13.83
2019-03-30T10:29:54.322Z,13.27
2019-03-30T10:32:24.317Z,13.90
2019-03-30T10:34:54.553Z,15.30
2019-03-30T10:37:24.653Z,11.97
2019-03-30T10:39:54.723Z,13.43
2019-03-30T10:42:24.858Z,10.77
2019-03-30T10:44:54.955Z,14.80
2019-03-30T10:47:24.964Z,13.40
2019-03-30T10:49:55.057Z,11.23
2019-03-30T10:52:25.000Z,12.40
2019-03-30T10:54:55.123Z,12.90
2019-03-30T10:57:25.107Z,12.80
2019-03-30T10:59:55.286Z,12.50
2019-03-30T11:02:25.344Z,9.60
2019-03-30T11:04:55.358Z,13.93
2019-03-30T11:07:25.509Z,10.00
2019-03-30T11:09:55.972Z,9.90
2019-03-30T11:12:26.465Z,10.90
2019-03-30T11:14:56.465Z,8.17
2019-03-30T11:17:26.565Z,10.53
2019-03-30T11:19:56.581Z,14.83
2019-03-30T11:22:26.740Z,13.90
2019-03-30T11:25:07.333Z,10.67
2019-03-30T11:27:28.557Z,11.07
2019-03-30T11:29:58.637Z,10.53
2019-03-30T11:32:28.650Z,11.33
2019-03-30T11:34:58.632Z,9.93
2019-03-30T11:37:28.637Z,10.20
2019-03-30T11:39:58.584Z,12.03
2019-03-30T11:42:28.624Z,10.70
2019-03-30T11:44:58.814Z,9.20
2019-03-30T11:47:30.993Z,9.43
2019-03-30T11:50:01.221Z,9.33
2019-03-30T11:52:31.297Z,11.17
2019-03-30T11:55:01.262Z,9.13
2019-03-30T11:57:31.350Z,9.33
2019-03-30T12:00:01.427Z,8.50
2019-03-30T12:02:31.477Z,10.27
2019-03-30T12:05:01.458Z,10.80
2019-03-30T12:07:31.606Z,9.63
2019-03-30T12:10:01.625Z,9.53
2019-03-30T12:12:31.646Z,7.00
2019-03-30T12:15:01.764Z,7.20
2019-03-30T12:17:31.877Z,7.93
2019-03-30T12:20:01.875Z,7.10
2019-03-30T12:22:31.979Z,9.40
2019-03-30T12:25:01.999Z,6.60
2019-03-30T12:27:32.084Z,9.57
2019-03-30T12:30:02.082Z,10.53
2019-03-30T12:32:32.369Z,8.10
2019-03-30T12:35:02.589Z,8.53
2019-03-30T12:37:32.665Z,7.80
2019-03-30T12:40:02.735Z,8.40
2019-03-30T12:42:32.795Z,7.73
2019-03-30T12:45:02.851Z,7.50
2019-03-30T12:47:32.917Z,6.20
2019-03-30T12:50:02.950Z,8.47
2019-03-30T12:52:33.040Z,8.90
2019-03-30T12:55:03.128Z,6.63
2019-03-30T12:57:33.754Z,7.20
2019-03-30T13:00:03.965Z,6.67
2019-03-30T13:02:33.993Z,10.60
2019-03-30T13:05:07.353Z,9.23
2019-03-30T13:07:35.751Z,6.40
2019-03-30T13:10:06.635Z,6.67
2019-03-30T13:12:36.724Z,6.30
2019-03-30T13:15:07.464Z,12.00
2019-03-30T13:17:37.607Z,6.70
2019-03-30T13:20:08.509Z,6.77
2019-03-30T13:22:38.531Z,6.90
2019-03-30T13:25:08.974Z,7.87
2019-03-30T13:27:38.971Z,8.10
2019-03-30T13:30:10.947Z,5.80
2019-03-30T13:32:41.000Z,7.63
2019-03-30T13:35:11.028Z,9.07
2019-03-30T13:37:41.438Z,6.20
2019-03-30T13:40:11.736Z,8.47
2019-03-30T13:42:42.829Z,7.47
2019-03-30T13:45:13.116Z,6.10
2019-03-30T13:48:00.932Z,7.30
2019-03-30T13:50:31.214Z,8.43
2019-03-30T13:53:01.445Z,10.10
2019-03-30T13:55:31.577Z,8.23
2019-03-30T13:58:01.609Z,7.27
2019-03-30T14:00:31.928Z,7.33
2019-03-30T14:03:01.987Z,7.03
2019-03-30T14:05:33.080Z,7.50
2019-03-30T14:08:20.950Z,6.33
2019-03-30T14:10:51.087Z,7.17
2019-03-30T14:13:21.157Z,7.53
2019-03-30T14:15:51.156Z,7.60
2019-03-30T14:18:22.029Z,8.30
2019-03-30T14:20:52.082Z,7.30
2019-03-30T14:23:22.156Z,7.63
2019-03-30T14:25:52.201Z,7.70
2019-03-30T14:28:22.214Z,9.10
2019-03-30T14:30:52.339Z,10.50
2019-03-30T14:33:22.531Z,6.07
2019-03-30T14:35:52.618Z,8.20
2019-03-30T14:38:22.752Z,8.27
2019-03-30T14:40:52.858Z,10.43
2019-03-30T14:43:23.019Z,12.20
2019-03-30T14:45:53.050Z,7.40
2019-03-30T14:48:23.146Z,6.90
2019-03-30T14:50:53.221Z,5.90
2019-03-30T14:53:23.343Z,7.37
2019-03-30T14:55:53.517Z,7.10
2019-03-30T14:58:23.777Z,8.00
2019-03-30T15:00:53.820Z,8.77
2019-03-30T15:03:24.562Z,8.73
2019-03-30T15:05:54.616Z,7.97
2019-03-30T15:08:24.784Z,7.20
2019-03-30T15:10:54.857Z,10.10
2019-03-30T15:13:24.999Z,8.87
2019-03-30T15:15:55.485Z,8.27
2019-03-30T15:18:25.608Z,8.77
2019-03-30T15:20:56.033Z,8.70
2019-03-30T15:23:27.194Z,8.70
2019-03-30T15:25:57.544Z,11.40
2019-03-30T15:28:27.644Z,8.73
2019-03-30T15:30:57.728Z,8.37
2019-03-30T15:33:27.761Z,9.70
2019-03-30T15:35:57.794Z,7.40
2019-03-30T15:38:27.889Z,8.73
2019-03-30T15:40:57.920Z,8.83
2019-03-30T15:43:38.232Z,8.37
2019-03-30T15:45:59.889Z,7.83
2019-03-30T15:48:30.199Z,7.83
2019-03-30T15:51:00.196Z,8.17
2019-03-30T15:53:30.631Z,7.30
2019-03-30T15:56:01.053Z,8.17
2019-03-30T15:58:31.301Z,7.30
2019-03-30T16:01:01.351Z,6.50
2019-03-30T16:03:31.492Z,6.53
2019-03-30T16:06:01.624Z,7.87
2019-03-30T16:08:31.720Z,7.40
2019-03-30T16:11:01.815Z,8.20
2019-03-30T16:13:31.879Z,8.43
2019-03-30T16:16:01.997Z,8.67
2019-03-30T16:18:32.123Z,7.47
2019-03-30T16:21:02.248Z,8.80
2019-03-30T16:23:33.754Z,10.50
2019-03-30T16:26:03.881Z,7.87
2019-03-30T16:28:33.925Z,15.97
2019-03-30T16:31:04.216Z,8.47
2019-03-30T16:33:34.259Z,8.93
2019-03-30T16:36:04.623Z,10.87
2019-03-30T16:38:34.673Z,12.40
2019-03-30T16:41:04.791Z,8.17
2019-03-30T16:43:52.367Z,9.07
2019-03-30T16:46:22.393Z,11.13
2019-03-30T16:48:52.530Z,11.30
2019-03-30T16:51:22.631Z,11.03
2019-03-30T16:53:52.771Z,9.40
2019-03-30T16:56:22.927Z,9.13
2019-03-30T16:58:53.036Z,12.10
2019-03-30T17:01:23.097Z,11.10
2019-03-30T17:03:53.275Z,10.70
2019-03-30T17:06:24.022Z,9.93
2019-03-30T17:08:54.081Z,7.83
2019-03-30T17:11:24.172Z,12.20
2019-03-30T17:13:54.358Z,7.90
2019-03-30T17:16:24.481Z,7.63
2019-03-30T17:18:54.561Z,9.23
2019-03-30T17:21:24.599Z,13.70
2019-03-30T17:23:54.888Z,11.23
2019-03-30T17:26:24.896Z,10.70
2019-03-30T17:28:55.082Z,14.13
2019-03-30T17:31:25.788Z,15.57
2019-03-30T17:33:56.096Z,17.83
2019-03-30T17:36:45.882Z,38.47
2019-03-30T17:39:15.997Z,13.60
2019-03-30T17:41:46.193Z,19.20
2019-03-30T17:44:34.292Z,19.67
2019-03-30T17:47:04.834Z,26.03
2019-03-30T17:49:35.322Z,22.20
2019-03-30T17:52:05.513Z,21.63
2019-03-30T17:54:35.936Z,30.93
2019-03-30T17:57:06.125Z,22.93
2019-03-30T17:59:36.281Z,28.53
2019-03-30T18:02:06.738Z,27.97
2019-03-30T18:04:38.967Z,19.70
2019-03-30T18:07:08.804Z,19.73
2019-03-30T18:09:39.216Z,22.17
2019-03-30T18:12:09.648Z,16.73
2019-03-30T18:14:39.848Z,15.90
2019-03-30T18:17:09.877Z,14.00
2019-03-30T18:19:40.142Z,14.73
2019-03-30T18:22:10.241Z,18.57
2019-03-30T18:24:40.465Z,16.57
2019-03-30T18:27:10.705Z,18.67
2019-03-30T18:29:40.957Z,18.43
2019-03-30T18:32:11.084Z,17.90
2019-03-30T18:34:43.002Z,22.23
2019-03-30T18:37:13.482Z,18.90
2019-03-30T18:40:01.218Z,21.60
2019-03-30T18:42:32.401Z,21.30
2019-03-30T18:45:03.637Z,23.53
2019-03-30T18:47:33.882Z,23.93
2019-03-30T18:50:04.113Z,25.23
2019-03-30T18:52:34.644Z,21.00
2019-03-30T18:55:04.811Z,20.40
2019-03-30T18:57:34.969Z,18.67
2019-03-30T19:00:05.653Z,22.13
2019-03-30T19:02:35.953Z,37.37
2019-03-30T19:05:06.200Z,17.93
2019-03-30T19:07:53.828Z,22.37
2019-03-30T19:10:24.141Z,21.70
2019-03-30T19:12:54.260Z,75.27
2019-03-30T19:15:24.437Z,37.67
2019-03-30T19:17:54.889Z,30.43
2019-03-30T19:20:25.164Z,27.93
2019-03-30T19:22:55.410Z,27.00
2019-03-30T19:25:25.459Z,34.80
2019-03-30T19:27:55.851Z,24.63
2019-03-30T19:30:26.141Z,19.20
2019-03-30T19:32:56.604Z,15.50
2019-03-30T19:35:27.037Z,15.93
2019-03-30T19:37:57.161Z,18.87
2019-03-30T19:40:28.441Z,19.00
2019-03-30T19:42:58.576Z,18.00
2019-03-30T19:45:28.710Z,20.60
2019-03-30T19:47:58.970Z,20.30
2019-03-30T19:50:29.545Z,22.90
2019-03-30T19:52:59.683Z,20.43
2019-03-30T19:55:29.853Z,17.07
2019-03-30T19:58:00.094Z,15.20
2019-03-30T20:00:30.240Z,16.00
2019-03-30T20:03:00.556Z,17.03
2019-03-30T20:05:30.623Z,19.63
2019-03-30T20:08:11.581Z,21.03
2019-03-30T20:10:32.585Z,20.00
2019-03-30T20:13:02.693Z,20.87
2019-03-30T20:17:56.955Z,21.23
2019-03-30T20:20:27.031Z,28.00
2019-03-30T20:22:57.025Z,23.90
2019-03-30T20:25:27.069Z,45.30
2019-03-30T20:27:57.128Z,48.23
2019-03-30T20:30:27.191Z,27.83
2019-03-30T20:32:57.176Z,30.63
2019-03-30T20:35:27.597Z,24.97
2019-03-30T20:37:57.625Z,23.90
2019-03-30T20:40:27.595Z,18.27
2019-03-30T20:42:57.654Z,19.20
2019-03-30T20:45:27.597Z,15.40
2019-03-30T20:47:57.714Z,18.33
2019-03-30T20:50:27.714Z,16.67
2019-03-30T20:52:57.719Z,17.03
2019-03-30T20:55:27.736Z,17.23
2019-03-30T20:57:57.794Z,18.43
2019-03-30T21:00:27.797Z,19.97
2019-03-30T21:02:57.779Z,16.60
2019-03-30T21:05:27.810Z,17.50
2019-03-30T21:07:57.886Z,20.23
2019-03-30T21:10:27.893Z,18.93
2019-03-30T21:12:58.225Z,19.10
2019-03-30T21:15:28.286Z,26.17
2019-03-30T21:17:58.305Z,35.40
2019-03-30T21:20:28.330Z,22.73
2019-03-30T21:22:58.901Z,19.83
2019-03-30T21:25:29.041Z,24.50
2019-03-30T21:27:59.200Z,26.03
2019-03-30T21:30:29.354Z,18.60
2019-03-30T21:32:59.591Z,20.33
2019-03-30T21:35:29.766Z,18.30
2019-03-30T21:37:59.897Z,18.47
2019-03-30T21:40:30.104Z,17.10
2019-03-30T21:43:00.266Z,17.30
2019-03-30T21:45:31.808Z,16.27
2019-03-30T21:48:01.956Z,17.07
2019-03-30T21:50:32.117Z,18.70
2019-03-30T21:53:02.259Z,18.63
2019-03-30T21:55:32.454Z,22.20
2019-03-30T21:58:02.657Z,18.70
2019-03-30T22:00:37.320Z,17.57
2019-03-30T22:03:07.511Z,18.40
2019-03-30T22:05:37.709Z,17.80
2019-03-30T22:08:08.077Z,20.43
2019-03-30T22:10:38.120Z,17.00
2019-03-30T22:13:08.546Z,20.00
2019-03-30T22:15:38.724Z,18.73
2019-03-30T22:18:08.905Z,19.33
2019-03-30T22:20:38.957Z,18.43
2019-03-30T22:23:09.180Z,20.77
2019-03-30T22:25:39.313Z,17.93
2019-03-30T22:28:09.469Z,22.50
2019-03-30T22:30:39.601Z,23.33
2019-03-30T22:33:09.799Z,26.70
2019-03-30T22:35:40.236Z,25.00
2019-03-30T22:38:10.406Z,24.70
2019-03-30T22:40:41.602Z,26.00
2019-03-30T22:43:11.848Z,27.47
2019-03-30T22:45:41.975Z,28.93
2019-03-30T22:48:12.211Z,30.70
2019-03-30T22:50:42.288Z,31.10
2019-03-30T22:53:12.439Z,30.60
2019-03-30T22:55:42.524Z,29.83
2019-03-30T22:58:12.716Z,21.90
2019-03-30T23:01:01.802Z,26.70
2019-03-30T23:03:31.931Z,27.20
2019-03-30T23:06:02.039Z,23.30
2019-03-30T23:08:32.269Z,25.27
2019-03-30T23:11:02.393Z,33.73
2019-03-30T23:13:33.538Z,37.58
2019-03-30T23:16:03.698Z,33.27
2019-03-30T23:18:34.033Z,29.50
2019-03-30T23:21:04.164Z,26.60
2019-03-30T23:23:34.389Z,26.37
2019-03-30T23:26:06.317Z,26.17
2019-03-30T23:28:36.551Z,25.90
2019-03-30T23:31:06.626Z,24.50
2019-03-30T23:33:39.314Z,24.47
2019-03-30T23:36:09.392Z,22.20
2019-03-30T23:38:39.547Z,22.90
2019-03-30T23:41:09.566Z,19.55
2019-03-30T23:43:39.689Z,23.30
2019-03-30T23:46:09.793Z,21.30
2019-03-30T23:48:39.996Z,19.23
2019-03-30T23:51:10.546Z,22.50
2019-03-30T23:53:40.674Z,23.52
2019-03-30T23:56:24.479Z,22.10
2019-03-30T23:58:55.048Z,19.10
